Time;durP1;ratioP1;P1;durP2;ratioP2;P2;SDS_P1;SDS_P2;PMS_P1;PMS_P2;Temp;Humidity;BMP_temperature;BMP_pressure;BME280_temperature;BME280_humidity;BME280_pressure;Samples;Min_cycle;Max_cycle;Signal;HPM_P1;HPM_P2
2022/11/11 00:03:19;;;;;;;10.67;4.97;;;6.70;99.90;;;;;;8312019;28;20601;-69
2022/11/11 00:07:19;;;;;;;8.60;5.20;;;6.80;99.90;;;;;;8314600;28;20212;-70
2022/11/11 00:11:20;;;;;;;9.90;4.90;;;6.80;99.90;;;;;;8318772;28;20301;-70
2022/11/11 00:15:21;;;;;;;12.13;4.80;;;6.80;99.90;;;;;;8316853;28;20193;-69
2022/11/11 00:28:00;;;;;;;6.67;4.20;;;6.90;99.90;;;;;;8316961;28;20209;-70
2022/11/11 00:36:20;;;;;;;7.27;4.23;;;6.90;99.90;;;;;;8319446;28;20217;-69
2022/11/11 00:40:21;;;;;;;8.00;4.10;;;6.90;99.90;;;;;;8323708;28;20250;-70
2022/11/11 00:44:21;;;;;;;13.13;3.80;;;6.90;99.90;;;;;;8320329;28;20191;-70
2022/11/11 00:52:45;;;;;;;8.67;4.27;;;7.00;99.90;;;;;;8325365;28;20217;-70
2022/11/11 00:56:46;;;;;;;6.63;4.57;;;6.90;22.40;;;;;;8323824;28;20213;-70
2022/11/11 01:00:49;;;;;;;8.27;3.93;;;6.90;1.00;;;;;;8318322;28;20174;-69
2022/11/11 01:04:49;;;;;;;9.27;4.93;;;6.90;1.00;;;;;;8320577;28;20197;-69
2022/11/11 01:08:50;;;;;;;9.47;4.63;;;6.90;1.00;;;;;;8322409;28;20218;-69
2022/11/11 01:13:10;;;;;;;7.57;4.13;;;6.90;1.00;;;;;;8324203;28;20182;-70
2022/11/11 01:17:11;;;;;;;9.43;4.47;;;6.90;1.00;;;;;;8319024;28;20186;-70
2022/11/11 01:21:15;;;;;;;5.23;4.00;;;6.90;1.00;;;;;;8324427;28;20185;-70
2022/11/11 01:25:15;;;;;;;8.97;4.40;;;6.90;1.00;;;;;;8321624;28;20198;-69
2022/11/11 01:29:16;;;;;;;8.80;4.20;;;6.90;1.00;;;;;;8322862;28;20210;-70
2022/11/11 01:33:17;;;;;;;9.83;4.53;;;6.90;1.00;;;;;;8320281;28;20182;-70
2022/11/11 01:37:18;;;;;;;12.00;6.03;;;7.00;1.00;;;;;;8313434;28;20216;-69
2022/11/11 01:41:33;;;;;;;11.57;6.40;;;7.00;99.90;;;;;;8317854;28;20262;-70
2022/11/11 01:46:00;;;;;;;9.30;5.73;;;7.20;99.90;;;;;;8322914;28;20182;-70
2022/11/11 01:50:01;;;;;;;7.20;4.73;;;7.30;63.10;;;;;;8312791;28;20219;-70
2022/11/11 01:54:09;;;;;;;10.90;6.07;;;7.30;99.90;;;;;;8323002;28;20175;-70
2022/11/11 01:58:15;;;;;;;7.73;4.87;;;7.40;64.50;;;;;;8321436;28;20309;-69
2022/11/11 02:02:23;;;;;;;7.47;4.30;;;7.50;99.90;;;;;;8322403;28;20253;-69
2022/11/11 02:06:26;;;;;;;9.00;4.10;;;7.50;69.10;;;;;;8313783;28;20252;-70
2022/11/11 02:10:31;;;;;;;10.20;3.60;;;7.60;99.90;;;;;;8319618;28;20240;-70
2022/11/11 02:14:46;;;;;;;8.73;3.30;;;7.60;99.90;;;;;;8319099;28;20609;-69
2022/11/11 02:18:47;;;;;;;5.73;2.90;;;7.60;99.90;;;;;;8319863;28;20189;-69
2022/11/11 02:23:05;;;;;;;8.87;3.37;;;7.60;99.90;;;;;;8319704;28;20264;-70
2022/11/11 02:27:10;;;;;;;10.20;4.00;;;7.60;99.90;;;;;;8321837;28;20189;-70
2022/11/11 02:31:12;;;;;;;6.50;3.50;;;7.60;99.90;;;;;;8322017;28;20218;-70
2022/11/11 02:35:23;;;;;;;6.20;3.30;;;7.60;99.90;;;;;;8325340;28;20189;-70
2022/11/11 02:39:26;;;;;;;8.90;3.70;;;7.60;99.90;;;;;;8317854;28;20248;-70
2022/11/11 02:43:27;;;;;;;6.73;3.20;;;7.60;99.90;;;;;;8321875;28;20189;-71
2022/11/11 02:47:28;;;;;;;6.63;3.70;;;7.60;99.90;;;;;;8322623;28;20186;-70
2022/11/11 02:51:28;;;;;;;9.07;3.93;;;7.60;99.90;;;;;;8323912;28;20190;-70
2022/11/11 02:55:29;;;;;;;6.43;3.60;;;7.60;99.90;;;;;;8320774;28;20197;-71
2022/11/11 02:59:30;;;;;;;6.87;3.57;;;7.60;99.90;;;;;;8318496;28;20206;-70
2022/11/11 03:03:31;;;;;;;5.80;3.00;;;7.50;99.90;;;;;;8322665;28;20480;-70
2022/11/11 03:07:31;;;;;;;6.23;3.50;;;7.50;99.90;;;;;;8320991;28;20232;-70
2022/11/11 03:11:33;;;;;;;5.80;3.10;;;7.50;99.90;;;;;;8321697;28;20281;-70
2022/11/11 03:15:34;;;;;;;8.20;3.73;;;7.40;99.90;;;;;;8316301;28;20190;-70
2022/11/11 03:19:35;;;;;;;8.47;3.73;;;7.40;1.00;;;;;;8319796;28;20189;-71
2022/11/11 03:23:36;;;;;;;3.63;2.97;;;7.40;16.60;;;;;;8327054;28;20186;-70
2022/11/11 03:27:36;;;;;;;5.40;3.07;;;7.30;99.90;;;;;;8319619;28;20242;-71
2022/11/11 03:31:37;;;;;;;7.17;3.70;;;7.30;99.90;;;;;;8320410;28;20190;-70
2022/11/11 03:35:38;;;;;;;5.30;3.30;;;7.20;99.90;;;;;;8319142;28;20288;-71
2022/11/11 03:39:39;;;;;;;9.90;3.20;;;7.20;99.90;;;;;;8320917;28;20190;-70
2022/11/11 03:43:40;;;;;;;4.87;2.87;;;7.10;99.90;;;;;;8319841;28;20220;-71
2022/11/11 03:47:40;;;;;;;7.97;3.00;;;7.00;1.00;;;;;;8321299;28;20187;-70
2022/11/11 03:51:41;;;;;;;7.47;3.07;;;7.00;1.00;;;;;;8319490;28;20535;-71
2022/11/11 03:55:42;;;;;;;8.23;3.17;;;7.00;1.30;;;;;;8315790;28;20183;-70
2022/11/11 03:59:43;;;;;;;4.23;2.70;;;6.90;99.90;;;;;;8319536;28;20202;-71
2022/11/11 04:12:23;;;;;;;5.80;3.17;;;6.90;99.90;;;;;;8317332;28;20194;-70
2022/11/11 04:16:24;;;;;;;5.90;2.80;;;6.90;1.00;;;;;;8318651;28;20201;-70
2022/11/11 04:33:27;;;;;;;5.37;2.97;;;6.80;75.00;;;;;;8315810;28;20213;-70
2022/11/11 04:37:31;;;;;;;5.37;2.87;;;6.80;99.90;;;;;;8317055;28;20202;-70
2022/11/11 04:41:31;;;;;;;3.17;2.53;;;6.80;1.00;;;;;;8317058;28;20186;-71
2022/11/11 04:45:34;;;;;;;5.73;3.37;;;6.80;99.90;;;;;;8316182;28;20229;-70
2022/11/11 04:49:35;;;;;;;5.00;3.03;;;6.80;99.90;;;;;;8316575;28;20217;-70
2022/11/11 04:53:36;;;;;;;6.13;2.90;;;6.80;1.00;;;;;;8315316;28;20194;-71
2022/11/11 04:57:46;;;;;;;5.30;2.93;;;6.80;1.00;;;;;;8315427;28;20213;-70
2022/11/11 05:10:45;;;;;;;7.57;3.60;;;7.00;99.90;;;;;;8330877;28;20233;-70
2022/11/11 05:25:24;;;;;;;9.33;2.77;;;7.20;99.90;;;;;;8323627;28;20194;-70
2022/11/11 05:27:47;;;;;;;5.07;2.60;;;7.30;1.00;;;;;;8326845;28;20551;-70
2022/11/11 05:31:47;;;;;;;6.07;2.60;;;7.40;99.90;;;;;;8322349;28;20214;-71
2022/11/11 05:35:48;;;;;;;9.00;2.67;;;7.50;1.00;;;;;;8323447;28;20197;-70
2022/11/11 05:39:49;;;;;;;4.83;2.50;;;7.60;1.00;;;;;;8313935;28;20178;-72
2022/11/11 05:43:50;;;;;;;6.50;3.00;;;7.70;99.90;;;;;;8323041;28;20205;-70
2022/11/11 05:47:51;;;;;;;5.63;2.33;;;7.80;29.50;;;;;;8321701;28;20293;-71
2022/11/11 05:51:52;;;;;;;6.07;2.20;;;7.80;99.90;;;;;;8322139;28;20265;-69
2022/11/11 05:55:53;;;;;;;4.27;2.37;;;7.80;99.90;;;;;;8326238;28;20260;-71
2022/11/11 05:59:53;;;;;;;5.60;2.30;;;7.90;61.90;;;;;;8320243;28;20203;-70
2022/11/11 06:03:54;;;;;;;6.50;2.40;;;7.90;1.00;;;;;;8320025;28;20448;-70
2022/11/11 06:07:55;;;;;;;4.53;2.03;;;8.00;99.90;;;;;;8323208;28;20306;-71
2022/11/11 06:11:56;;;;;;;3.73;2.10;;;8.00;99.90;;;;;;8320852;28;20213;-70
2022/11/11 06:15:58;;;;;;;7.67;2.20;;;8.10;99.90;;;;;;8322275;28;20177;-70
2022/11/11 06:19:58;;;;;;;7.20;2.27;;;8.10;99.90;;;;;;8321953;28;20186;-71
2022/11/11 06:23:59;;;;;;;3.80;2.10;;;8.10;99.90;;;;;;8323572;28;20182;-70
2022/11/11 06:28:00;;;;;;;4.23;2.00;;;8.10;99.90;;;;;;8324317;28;20637;-71
2022/11/11 06:32:00;;;;;;;4.57;1.93;;;8.10;99.90;;;;;;8322438;28;20210;-71
2022/11/11 06:36:02;;;;;;;4.00;2.20;;;8.10;99.90;;;;;;8324049;28;20177;-70
2022/11/11 06:40:03;;;;;;;3.33;1.80;;;8.10;99.90;;;;;;8316402;28;20517;-70
2022/11/11 06:44:04;;;;;;;3.33;2.00;;;8.10;99.90;;;;;;8320216;28;20329;-71
2022/11/11 06:48:05;;;;;;;3.80;2.23;;;8.20;92.20;;;;;;8318774;28;20210;-71
2022/11/11 06:52:06;;;;;;;5.70;2.10;;;8.20;79.20;;;;;;8323766;28;20182;-69
2022/11/11 06:56:08;;;;;;;5.30;1.87;;;8.20;66.80;;;;;;8319640;28;20206;-70
2022/11/11 07:00:09;;;;;;;6.27;1.97;;;8.20;50.20;;;;;;8318827;28;20207;-72
2022/11/11 07:04:10;;;;;;;3.87;1.73;;;8.30;49.90;;;;;;8319103;28;20187;-71
2022/11/11 07:08:14;;;;;;;4.87;2.03;;;8.30;49.50;;;;;;8320562;28;20253;-70
2022/11/11 07:12:15;;;;;;;5.17;2.30;;;8.40;43.50;;;;;;8319465;28;20179;-71
2022/11/11 07:16:16;;;;;;;2.93;1.87;;;8.40;15.80;;;;;;8318685;28;20215;-70
2022/11/11 07:20:17;;;;;;;4.30;1.90;;;8.50;1.00;;;;;;8324241;28;20241;-71
2022/11/11 07:24:17;;;;;;;3.10;1.90;;;8.60;1.00;;;;;;8322312;28;20190;-70
2022/11/11 07:28:18;;;;;;;6.00;2.30;;;8.80;1.00;;;;;;8321267;28;20214;-70
2022/11/11 07:32:19;;;;;;;6.20;2.10;;;8.90;1.00;;;;;;8318106;28;20188;-71
2022/11/11 07:36:20;;;;;;;3.43;2.10;;;9.00;1.00;;;;;;8316933;28;20175;-70
2022/11/11 07:40:21;;;;;;;4.80;2.10;;;9.10;1.00;;;;;;8319221;28;20189;-70
2022/11/11 07:44:21;;;;;;;3.70;1.87;;;9.20;1.00;;;;;;8319943;28;20210;-71
2022/11/11 07:48:22;;;;;;;5.17;2.00;;;9.20;1.00;;;;;;8316686;28;20203;-71
2022/11/11 07:52:23;;;;;;;5.03;1.90;;;9.30;99.90;;;;;;8317560;28;20180;-70
2022/11/11 07:56:24;;;;;;;6.33;2.00;;;9.40;99.90;;;;;;8317532;28;20263;-70
2022/11/11 08:00:25;;;;;;;5.20;2.03;;;9.60;99.90;;;;;;8316542;28;20216;-71
2022/11/11 08:04:26;;;;;;;3.47;2.10;;;9.70;99.90;;;;;;8318101;28;20191;-70
2022/11/11 08:08:26;;;;;;;5.60;2.03;;;9.80;99.90;;;;;;8318119;28;20295;-71
2022/11/11 08:16:47;;;;;;;4.03;2.00;;;10.10;99.90;;;;;;8319345;28;20181;-71
2022/11/11 08:20:47;;;;;;;3.73;1.83;;;10.30;99.90;;;;;;8316541;28;20180;-71
2022/11/11 08:24:48;;;;;;;6.73;2.57;;;10.40;99.90;;;;;;8315316;28;20213;-70
2022/11/11 08:28:51;;;;;;;3.47;1.80;;;10.50;99.90;;;;;;8315438;28;20209;-71
2022/11/11 08:32:59;;;;;;;4.77;1.93;;;10.50;99.90;;;;;;8320008;28;20189;-71
2022/11/11 08:37:00;;;;;;;4.33;2.07;;;10.60;99.90;;;;;;8313136;28;20422;-71
2022/11/11 08:41:03;;;;;;;4.93;1.90;;;10.70;99.90;;;;;;8318205;28;20312;-71
2022/11/11 08:45:04;;;;;;;6.60;2.17;;;10.70;99.90;;;;;;8318105;28;20274;-70
2022/11/11 08:49:05;;;;;;;3.83;1.57;;;10.70;99.90;;;;;;8319261;28;20292;-72
2022/11/11 08:53:07;;;;;;;5.37;2.20;;;10.80;99.90;;;;;;8318967;28;20178;-72
2022/11/11 08:57:08;;;;;;;5.10;1.90;;;10.90;99.90;;;;;;8322467;28;20252;-70
2022/11/11 09:01:13;;;;;;;3.93;2.50;;;11.00;99.90;;;;;;8320577;28;20190;-70
2022/11/11 09:05:14;;;;;;;6.30;2.00;;;11.20;99.90;;;;;;8323798;28;20262;-70
2022/11/11 09:09:14;;;;;;;4.17;2.13;;;11.30;99.90;;;;;;8325081;28;20283;-71
2022/11/11 09:13:15;;;;;;;5.17;2.30;;;11.50;99.90;;;;;;8323065;28;20175;-71
2022/11/11 09:17:16;;;;;;;3.67;1.90;;;11.60;99.90;;;;;;8319652;28;20302;-71
2022/11/11 09:21:17;;;;;;;3.57;2.40;;;11.70;99.90;;;;;;8320462;28;20182;-71
2022/11/11 09:25:19;;;;;;;4.80;2.43;;;11.80;99.90;;;;;;8324165;28;20274;-70
2022/11/11 09:29:20;;;;;;;7.57;2.10;;;11.80;98.30;;;;;;8321591;28;20193;-73
2022/11/11 09:33:20;;;;;;;4.33;2.43;;;11.90;90.50;;;;;;8320248;28;20175;-71
2022/11/11 09:37:22;;;;;;;4.97;1.90;;;11.90;89.70;;;;;;8319345;28;20194;-71
2022/11/11 09:41:44;;;;;;;6.90;2.90;;;11.90;76.40;;;;;;8318676;28;20182;-71
2022/11/11 09:45:57;;;;;;;5.87;2.27;;;11.80;73.90;;;;;;8320078;28;20182;-72
2022/11/11 09:50:03;;;;;;;4.37;2.23;;;11.80;82.50;;;;;;8318912;28;20219;-71
2022/11/11 09:54:09;;;;;;;3.83;1.97;;;12.00;82.40;;;;;;8317890;28;20182;-71
2022/11/11 09:58:17;;;;;;;4.37;1.90;;;12.10;75.20;;;;;;8317768;28;20240;-71
2022/11/11 10:02:27;;;;;;;4.43;2.00;;;12.20;52.00;;;;;;8314749;28;20189;-71
2022/11/11 10:06:32;;;;;;;4.03;2.17;;;12.30;45.70;;;;;;8316665;28;20202;-71
2022/11/11 10:10:53;;;;;;;6.67;1.77;;;12.40;42.60;;;;;;8314580;28;20238;-71
2022/11/11 10:14:54;;;;;;;4.80;2.20;;;12.50;25.90;;;;;;8318474;28;20273;-71
2022/11/11 10:19:07;;;;;;;2.40;1.67;;;12.60;24.80;;;;;;8323981;28;20189;-71
2022/11/11 10:23:15;;;;;;;4.27;1.70;;;13.00;7.70;;;;;;8315755;28;20196;-71
2022/11/11 10:27:19;;;;;;;3.13;1.80;;;13.50;1.00;;;;;;8316066;28;20222;-71
2022/11/11 10:31:22;;;;;;;6.80;1.93;;;13.70;1.00;;;;;;8318397;28;20285;-70
2022/11/11 10:35:28;;;;;;;3.60;1.80;;;13.90;1.00;;;;;;8315899;28;20175;-74
2022/11/11 10:39:47;;;;;;;2.97;1.40;;;14.00;1.00;;;;;;8307711;28;20198;-71
2022/11/11 10:43:48;;;;;;;5.87;1.80;;;14.10;1.00;;;;;;8326551;28;20225;-72
2022/11/11 10:48:00;;;;;;;4.10;1.83;;;14.10;1.00;;;;;;8316466;28;20189;-71
2022/11/11 10:52:27;;;;;;;3.70;1.50;;;14.20;1.00;;;;;;8315142;28;20269;-72
2022/11/11 10:56:57;;;;;;;4.73;1.67;;;14.10;1.00;;;;;;8315322;28;20191;-71
2022/11/11 11:01:01;;;;;;;3.83;1.50;;;14.10;1.00;;;;;;8318334;28;20187;-71
2022/11/11 11:05:12;;;;;;;2.00;1.17;;;14.20;1.00;;;;;;8319135;28;20190;-71
2022/11/11 11:10:03;;;;;;;3.97;1.10;;;14.20;1.00;;;;;;8315465;28;20241;-70
2022/11/11 11:14:35;;;;;;;2.10;1.30;;;14.30;1.00;;;;;;8310853;28;20412;-70
2022/11/11 11:18:36;;;;;;;2.87;1.53;;;14.30;1.00;;;;;;8313972;28;20216;-71
2022/11/11 11:22:52;;;;;;;2.70;1.40;;;14.30;1.00;;;;;;8314133;28;20266;-71
2022/11/11 11:27:01;;;;;;;2.50;1.00;;;14.40;1.00;;;;;;8315709;28;20290;-71
2022/11/11 11:31:06;;;;;;;3.53;1.40;;;14.40;1.00;;;;;;8312401;28;20514;-71
2022/11/11 11:35:08;;;;;;;4.53;1.53;;;14.30;1.00;;;;;;8317289;28;20581;-70
2022/11/11 11:39:08;;;;;;;2.90;1.60;;;14.20;1.00;;;;;;8310858;28;20182;-71
2022/11/11 11:43:34;;;;;;;3.57;1.90;;;14.10;1.00;;;;;;8313474;28;20273;-71
2022/11/11 11:47:49;;;;;;;2.93;1.40;;;14.20;1.00;;;;;;8316949;28;20205;-71
2022/11/11 11:52:20;;;;;;;4.20;1.77;;;13.90;1.00;;;;;;8307188;28;20186;-71
2022/11/11 11:56:36;;;;;;;2.77;1.43;;;13.80;1.00;;;;;;8313187;28;20183;-71
2022/11/11 12:01:01;;;;;;;4.37;1.57;;;13.80;1.00;;;;;;8321929;28;20273;-72
2022/11/11 12:05:09;;;;;;;4.20;1.83;;;13.90;1.00;;;;;;8313780;28;20189;-71
2022/11/11 12:09:19;;;;;;;3.33;1.50;;;13.90;1.00;;;;;;8311574;28;20232;-71
2022/11/11 12:13:23;;;;;;;3.07;1.67;;;13.80;1.00;;;;;;8312114;28;20179;-70
2022/11/11 12:17:43;;;;;;;3.10;1.43;;;13.70;1.00;;;;;;8310930;28;20386;-70
2022/11/11 12:22:03;;;;;;;2.93;1.70;;;13.80;1.00;;;;;;8312456;28;20187;-71
2022/11/11 12:26:42;;;;;;;2.57;1.40;;;13.90;1.00;;;;;;8314736;28;20581;-71
2022/11/11 12:31:28;;;;;;;6.83;1.80;;;14.10;1.00;;;;;;8315513;28;20223;-70
2022/11/11 12:36:07;;;;;;;3.20;1.83;;;14.10;1.00;;;;;;8300800;28;20194;-70
2022/11/11 12:40:34;;;;;;;3.77;1.70;;;14.00;1.00;;;;;;8308439;28;20191;-71
2022/11/11 12:45:10;;;;;;;3.70;1.80;;;14.00;1.00;;;;;;8316052;28;20186;-71
2022/11/11 12:49:23;;;;;;;5.23;1.80;;;13.90;1.00;;;;;;8312160;28;20345;-71
2022/11/11 12:53:32;;;;;;;3.17;1.97;;;13.90;1.00;;;;;;8318317;28;20221;-69
2022/11/11 12:58:04;;;;;;;3.30;1.57;;;13.80;1.00;;;;;;8312310;28;20345;-71
2022/11/11 13:02:30;;;;;;;4.53;2.27;;;13.80;1.00;;;;;;8312436;28;20218;-72
2022/11/11 13:06:31;;;;;;;7.00;2.20;;;13.80;1.00;;;;;;8310859;28;20213;-72
2022/11/11 13:10:58;;;;;;;3.93;2.30;;;13.70;1.00;;;;;;8311961;28;20216;-71
2022/11/11 13:15:23;;;;;;;4.73;2.43;;;13.70;1.00;;;;;;8318057;28;20262;-71
2022/11/11 13:19:43;;;;;;;5.87;2.80;;;13.60;1.00;;;;;;8316152;28;20187;-70
2022/11/11 13:23:44;;;;;;;5.00;2.57;;;13.50;1.00;;;;;;8313172;28;20191;-71
2022/11/11 13:27:57;;;;;;;3.50;2.20;;;13.50;1.00;;;;;;8316436;28;20225;-71
2022/11/11 13:32:01;;;;;;;2.77;1.87;;;13.30;1.00;;;;;;8314118;28;20312;-71
2022/11/11 13:36:03;;;;;;;5.17;2.30;;;13.30;1.00;;;;;;8317922;28;20649;-71
2022/11/11 13:40:33;;;;;;;4.67;2.50;;;13.20;1.00;;;;;;8317067;28;20183;-70
2022/11/11 13:44:43;;;;;;;5.50;2.47;;;13.10;1.00;;;;;;8317912;28;20194;-70
2022/11/11 13:48:47;;;;;;;4.83;2.20;;;13.10;1.00;;;;;;8319196;28;20356;-70
2022/11/11 13:53:05;;;;;;;4.00;1.93;;;13.00;1.00;;;;;;8319294;28;20179;-71
2022/11/11 13:57:18;;;;;;;5.53;2.30;;;12.90;1.00;;;;;;8316814;28;20267;-71
2022/11/11 14:01:19;;;;;;;4.60;2.33;;;12.80;1.00;;;;;;8311179;28;20201;-71
2022/11/11 14:05:21;;;;;;;4.87;2.20;;;12.70;1.00;;;;;;8318220;28;20186;-71
2022/11/11 14:10:10;;;;;;;6.00;2.20;;;12.60;1.00;;;;;;8315818;28;20211;-72
2022/11/11 14:14:45;;;;;;;3.43;2.47;;;12.60;1.00;;;;;;8315134;28;20231;-71
2022/11/11 14:18:46;;;;;;;2.73;2.00;;;12.50;1.00;;;;;;8321326;28;20197;-71
2022/11/11 14:22:52;;;;;;;4.67;2.33;;;12.40;1.00;;;;;;8314964;28;20281;-71
2022/11/11 14:27:14;;;;;;;4.87;2.70;;;12.30;1.00;;;;;;8313521;28;20195;-71
2022/11/11 14:31:14;;;;;;;5.10;2.77;;;12.20;1.00;;;;;;8314620;28;20206;-71
2022/11/11 14:35:37;;;;;;;4.73;2.50;;;12.10;1.00;;;;;;8315075;28;20210;-71
2022/11/11 14:39:42;;;;;;;5.17;2.20;;;12.00;1.00;;;;;;8314670;28;20196;-71
2022/11/11 14:43:43;;;;;;;4.97;2.43;;;11.90;1.00;;;;;;8316568;28;20190;-71
2022/11/11 14:47:44;;;;;;;5.83;2.80;;;11.80;1.00;;;;;;8315499;28;20199;-71
2022/11/11 14:51:49;;;;;;;4.63;2.97;;;11.70;1.00;;;;;;8319544;28;20206;-71
2022/11/11 14:55:54;;;;;;;8.07;3.40;;;11.60;1.00;;;;;;8314332;28;20181;-70
2022/11/11 14:59:56;;;;;;;6.80;2.80;;;11.50;1.00;;;;;;8311063;28;20221;-70
2022/11/11 15:04:02;;;;;;;6.20;2.80;;;11.40;1.00;;;;;;8315829;28;20494;-71
2022/11/11 15:08:36;;;;;;;8.43;3.40;;;11.30;3.10;;;;;;8316942;28;20206;-71
2022/11/11 15:13:02;;;;;;;4.03;3.03;;;11.20;9.80;;;;;;8307773;28;20256;-70
2022/11/11 15:17:26;;;;;;;4.90;3.27;;;11.10;16.60;;;;;;8316324;28;20186;-70
2022/11/11 15:21:35;;;;;;;6.60;3.53;;;11.00;26.80;;;;;;8314568;28;20205;-71
2022/11/11 15:25:59;;;;;;;7.70;3.87;;;10.90;33.20;;;;;;8315181;28;20194;-70
2022/11/11 15:30:13;;;;;;;5.03;3.30;;;10.80;32.70;;;;;;8311502;28;20247;-69
2022/11/11 15:34:34;;;;;;;5.33;3.70;;;10.80;34.30;;;;;;8317693;28;20174;-70
2022/11/11 15:38:36;;;;;;;6.03;3.27;;;10.70;46.50;;;;;;8331588;28;20182;-72
2022/11/11 15:42:39;;;;;;;7.20;3.83;;;10.60;50.20;;;;;;8317742;28;20195;-71
2022/11/11 15:46:42;;;;;;;5.10;3.50;;;10.60;47.10;;;;;;8318248;28;20193;-71
2022/11/11 15:50:42;;;;;;;6.30;3.50;;;10.60;48.50;;;;;;8324649;28;20548;-70
2022/11/11 15:54:43;;;;;;;4.60;3.33;;;10.60;41.40;;;;;;8317498;28;20321;-71
2022/11/11 15:58:44;;;;;;;4.03;3.13;;;10.60;45.80;;;;;;8318278;28;20265;-70
2022/11/11 16:02:45;;;;;;;6.10;3.90;;;10.50;51.00;;;;;;8318458;28;20235;-70
2022/11/11 16:06:46;;;;;;;5.97;3.93;;;10.40;53.60;;;;;;8315396;28;20204;-71
2022/11/11 16:10:55;;;;;;;5.43;3.60;;;10.40;50.10;;;;;;8313925;28;20221;-70
2022/11/11 16:14:57;;;;;;;7.63;4.10;;;10.40;48.70;;;;;;8319661;28;20190;-72
2022/11/11 16:18:58;;;;;;;6.93;3.90;;;10.40;49.70;;;;;;8314331;28;20186;-72
2022/11/11 16:23:03;;;;;;;6.87;4.10;;;10.30;39.00;;;;;;8317442;28;20185;-71
2022/11/11 16:27:05;;;;;;;8.07;4.50;;;10.30;36.80;;;;;;8317810;28;20407;-71
2022/11/11 16:31:34;;;;;;;6.60;4.20;;;10.30;38.40;;;;;;8319911;28;20239;-71
2022/11/11 16:35:38;;;;;;;7.63;3.90;;;10.20;46.00;;;;;;8303374;28;20187;-72
2022/11/11 16:39:39;;;;;;;4.77;3.60;;;10.10;43.40;;;;;;8312657;28;20216;-70
2022/11/11 16:43:41;;;;;;;6.87;4.27;;;10.10;44.70;;;;;;8312495;28;20184;-70
2022/11/11 16:47:46;;;;;;;5.20;3.90;;;10.10;40.30;;;;;;8311298;28;20193;-71
2022/11/11 16:51:47;;;;;;;6.63;4.23;;;10.10;36.20;;;;;;8314077;28;20253;-71
2022/11/11 16:55:48;;;;;;;5.77;4.20;;;10.10;37.40;;;;;;8315200;28;20192;-71
2022/11/11 16:59:54;;;;;;;5.77;3.70;;;10.10;35.50;;;;;;8313772;28;20236;-70
2022/11/11 17:03:59;;;;;;;4.80;3.77;;;10.00;38.80;;;;;;8314592;28;20181;-71
2022/11/11 17:07:59;;;;;;;7.90;4.33;;;10.00;39.30;;;;;;8316694;28;20199;-70
2022/11/11 17:12:00;;;;;;;9.13;4.33;;;9.90;48.20;;;;;;8318740;28;20192;-71
2022/11/11 17:16:03;;;;;;;6.97;4.30;;;9.90;49.90;;;;;;8314932;28;20175;-71
2022/11/11 17:20:17;;;;;;;8.93;4.63;;;9.80;76.60;;;;;;8321898;28;20180;-70
2022/11/11 17:24:17;;;;;;;8.07;4.90;;;9.70;63.10;;;;;;8318600;28;20277;-71
2022/11/11 17:28:19;;;;;;;9.77;5.67;;;9.60;72.50;;;;;;8318119;28;20286;-71
2022/11/11 17:32:20;;;;;;;10.20;5.70;;;9.50;91.10;;;;;;8318889;28;20255;-70
2022/11/11 17:36:20;;;;;;;11.00;5.37;;;9.30;99.70;;;;;;8318013;28;20249;-71
2022/11/11 17:40:21;;;;;;;10.00;6.17;;;9.20;99.90;;;;;;8319177;28;20225;-71
2022/11/11 17:44:22;;;;;;;10.70;6.17;;;9.10;99.90;;;;;;8321686;28;20191;-71
2022/11/11 17:48:24;;;;;;;12.10;6.40;;;9.00;99.90;;;;;;8317412;28;20212;-70
2022/11/11 17:52:25;;;;;;;9.77;6.33;;;8.90;99.90;;;;;;8319520;28;20180;-70
2022/11/11 17:56:26;;;;;;;11.60;6.57;;;8.90;99.90;;;;;;8316908;28;20242;-71
2022/11/11 18:00:27;;;;;;;8.77;5.97;;;8.80;99.90;;;;;;8317761;28;20215;-71
2022/11/11 18:04:28;;;;;;;12.13;6.17;;;8.80;99.90;;;;;;8318659;28;20193;-69
2022/11/11 18:08:29;;;;;;;10.00;6.37;;;8.80;99.90;;;;;;8316776;28;20216;-71
2022/11/11 18:12:30;;;;;;;12.50;6.97;;;8.70;99.90;;;;;;8323997;28;20178;-71
2022/11/11 18:16:31;;;;;;;11.27;7.07;;;8.70;99.90;;;;;;8317326;28;20209;-72
2022/11/11 18:20:32;;;;;;;12.67;7.33;;;8.70;99.90;;;;;;8319961;28;20187;-71
2022/11/11 18:24:33;;;;;;;12.60;7.10;;;8.70;99.90;;;;;;8317423;28;20191;-71
2022/11/11 18:28:37;;;;;;;10.00;7.47;;;8.70;99.90;;;;;;8316268;28;20249;-71
2022/11/11 18:32:37;;;;;;;13.53;7.90;;;8.60;99.90;;;;;;8321147;28;20192;-69
2022/11/11 18:36:38;;;;;;;12.23;7.43;;;8.60;99.90;;;;;;8320846;28;20186;-70
2022/11/11 18:40:39;;;;;;;12.07;6.87;;;8.70;99.90;;;;;;8323655;28;20197;-71
2022/11/11 18:44:40;;;;;;;10.30;6.93;;;8.60;99.90;;;;;;8317641;28;20190;-70
2022/11/11 18:48:41;;;;;;;12.00;6.93;;;8.50;99.90;;;;;;8317477;28;20290;-70
2022/11/11 18:52:42;;;;;;;11.37;6.50;;;8.50;99.90;;;;;;8318979;28;20182;-70
2022/11/11 18:56:43;;;;;;;12.57;6.50;;;8.50;99.90;;;;;;8311989;28;21267;-70
2022/11/11 19:00:44;;;;;;;12.53;6.70;;;8.50;99.90;;;;;;8316828;28;20186;-70
2022/11/11 19:04:44;;;;;;;12.73;6.57;;;8.50;99.90;;;;;;8320492;28;20214;-71
2022/11/11 19:08:46;;;;;;;13.63;6.70;;;8.50;99.90;;;;;;8318473;28;20237;-71
2022/11/11 19:12:47;;;;;;;11.37;6.43;;;8.50;99.90;;;;;;8315107;28;20210;-70
2022/11/11 19:16:47;;;;;;;10.73;5.90;;;8.50;99.90;;;;;;8308057;28;20186;-70
2022/11/11 19:20:48;;;;;;;9.07;5.60;;;8.50;99.90;;;;;;8315956;28;20186;-70
2022/11/11 19:24:49;;;;;;;8.87;6.43;;;8.50;99.90;;;;;;8317045;28;20178;-70
2022/11/11 19:28:51;;;;;;;10.33;6.37;;;8.50;99.90;;;;;;8318055;28;20252;-71
2022/11/11 19:32:52;;;;;;;10.93;6.73;;;8.50;99.90;;;;;;8317481;28;20246;-71
2022/11/11 19:36:53;;;;;;;11.73;6.03;;;8.50;99.90;;;;;;8314681;28;20182;-73
2022/11/11 19:40:53;;;;;;;8.93;5.97;;;8.50;99.90;;;;;;8320168;28;20270;-70
2022/11/11 19:44:54;;;;;;;9.80;6.27;;;8.50;99.90;;;;;;8319093;28;20192;-70
2022/11/11 19:48:57;;;;;;;8.97;6.00;;;8.50;99.90;;;;;;8316743;28;20288;-70
2022/11/11 19:52:58;;;;;;;11.80;6.57;;;8.50;99.90;;;;;;8318357;28;20183;-70
2022/11/11 19:56:59;;;;;;;9.50;6.30;;;8.50;99.90;;;;;;8317340;28;20203;-69
2022/11/11 20:01:26;;;;;;;10.73;6.17;;;8.50;99.90;;;;;;8318525;28;20190;-71
2022/11/11 20:05:27;;;;;;;11.27;6.20;;;8.50;99.90;;;;;;8308455;28;20206;-70
2022/11/11 20:09:30;;;;;;;8.97;5.80;;;8.50;99.90;;;;;;8316245;28;20232;-70
2022/11/11 20:13:31;;;;;;;11.37;6.50;;;8.40;99.90;;;;;;8318162;28;20225;-71
2022/11/11 20:17:34;;;;;;;12.27;6.70;;;8.50;99.90;;;;;;8318241;28;20457;-70
2022/11/11 20:21:35;;;;;;;10.10;6.07;;;8.40;99.90;;;;;;8318110;28;20195;-70
2022/11/11 20:25:36;;;;;;;11.83;7.17;;;8.40;99.90;;;;;;8314017;28;20190;-70
2022/11/11 20:29:37;;;;;;;10.10;6.53;;;8.40;99.90;;;;;;8315361;28;20297;-70
2022/11/11 20:33:39;;;;;;;11.07;6.50;;;8.30;99.90;;;;;;8316630;28;20179;-71
2022/11/11 20:37:40;;;;;;;10.93;6.17;;;8.30;99.90;;;;;;8314406;28;20202;-71
2022/11/11 20:41:41;;;;;;;9.57;6.03;;;8.30;99.90;;;;;;8313448;28;20193;-70
2022/11/11 20:45:41;;;;;;;14.17;7.53;;;8.20;99.90;;;;;;8315212;28;20190;-70
2022/11/11 20:49:43;;;;;;;11.17;6.63;;;8.10;99.90;;;;;;8317047;28;20208;-70
2022/11/11 20:53:44;;;;;;;11.10;7.13;;;8.00;99.90;;;;;;8316854;28;20233;-73
2022/11/11 20:57:45;;;;;;;12.67;7.17;;;7.90;99.90;;;;;;8317421;28;20209;-70
2022/11/11 21:01:46;;;;;;;11.73;7.23;;;7.80;99.90;;;;;;8320031;28;20179;-70
2022/11/11 21:05:46;;;;;;;13.33;7.90;;;7.80;99.90;;;;;;8315594;28;20189;-70
2022/11/11 21:09:47;;;;;;;13.53;7.40;;;7.70;99.90;;;;;;8318211;28;20207;-70
2022/11/11 21:13:54;;;;;;;9.93;7.40;;;7.70;99.90;;;;;;8322628;28;20178;-69
2022/11/11 21:17:55;;;;;;;9.50;6.87;;;7.70;99.90;;;;;;8317498;28;20172;-70
2022/11/11 21:21:56;;;;;;;11.17;6.80;;;7.70;99.90;;;;;;8322124;28;20198;-70
2022/11/11 21:26:04;;;;;;;11.83;7.97;;;7.70;99.90;;;;;;8321849;28;20176;-71
2022/11/11 21:30:06;;;;;;;12.10;7.00;;;7.70;99.90;;;;;;8317051;28;20207;-71
2022/11/11 21:34:09;;;;;;;12.30;6.70;;;7.70;99.90;;;;;;8318982;28;20182;-71
2022/11/11 21:38:10;;;;;;;13.67;7.67;;;7.70;99.90;;;;;;8314574;28;20178;-70
2022/11/11 21:42:11;;;;;;;10.53;6.83;;;7.70;99.90;;;;;;8319862;28;20186;-71
2022/11/11 21:46:14;;;;;;;10.07;6.63;;;7.80;99.90;;;;;;8319679;28;20174;-70
2022/11/11 21:50:15;;;;;;;10.63;6.47;;;7.80;99.90;;;;;;8319579;28;20237;-70
2022/11/11 21:54:17;;;;;;;10.37;6.23;;;7.80;99.90;;;;;;8316923;28;20237;-69
2022/11/11 21:58:18;;;;;;;10.03;6.43;;;7.80;99.90;;;;;;8317708;28;20214;-69
2022/11/11 22:02:19;;;;;;;13.27;6.33;;;7.80;99.90;;;;;;8317967;28;20182;-70
2022/11/11 22:06:20;;;;;;;9.63;6.23;;;7.80;99.90;;;;;;8315705;28;20285;-70
2022/11/11 22:10:21;;;;;;;9.70;6.30;;;7.80;99.90;;;;;;8317736;28;20401;-70
2022/11/11 22:14:21;;;;;;;9.47;5.67;;;7.70;99.90;;;;;;8315769;28;20189;-70
2022/11/11 22:18:22;;;;;;;9.83;6.00;;;7.60;99.90;;;;;;8317205;28;20266;-71
2022/11/11 22:22:23;;;;;;;10.43;5.70;;;7.50;99.90;;;;;;8316048;28;20182;-71
2022/11/11 22:26:26;;;;;;;10.43;6.03;;;7.50;99.90;;;;;;8320365;28;20175;-71
2022/11/11 22:30:27;;;;;;;8.17;5.53;;;7.40;99.90;;;;;;8316928;28;20322;-70